Terminal Aerodrome Forecast
Issued by NWS

Home | Current Version | Previous Version | Text Only | Print | Product List | Glossary On
Versions: 1 2 3 4 5 6 7 8 9 10 11 12 13 14 15 16
000
FTUS43 KFGF 191721 AAC
TAFTVF
TAF AMD
KTVF 191721Z 1917/2018 17015KT 2SM BR BKN005
      TEMPO 1918/1920 P6SM NSW SCT005
     FM192000 19011KT P6SM SCT015
     FM200200 18009KT 5SM BR BKN008
     FM201000 17007KT 5SM -FZDZ BR BKN003
     FM201200 15007KT P6SM BKN003=

USA.gov is the U.S. government's official web portal to all federal, state and local government web resources and services.